sensor_id;sensor_type;location;lat;lon;timestamp;pressure;altitude;pressure_sealevel;temperature;humidity
17855;BME280;9053;53.358;6.382;2024-03-29T00:00:36;98908.47;;;10.00;85.83
17855;BME280;9053;53.358;6.382;2024-03-29T00:03:05;98911.13;;;10.02;85.86
17855;BME280;9053;53.358;6.382;2024-03-29T00:05:33;98917.25;;;10.04;85.74
17855;BME280;9053;53.358;6.382;2024-03-29T00:07:59;98912.84;;;10.03;85.64
17855;BME280;9053;53.358;6.382;2024-03-29T00:10:25;98917.25;;;10.05;85.62
17855;BME280;9053;53.358;6.382;2024-03-29T00:12:51;98910.25;;;10.04;85.50
17855;BME280;9053;53.358;6.382;2024-03-29T00:15:20;98910.22;;;10.03;85.44
17855;BME280;9053;53.358;6.382;2024-03-29T00:17:46;98912.84;;;10.00;85.40
17855;BME280;9053;53.358;6.382;2024-03-29T00:20:15;98910.22;;;10.00;85.32
17855;BME280;9053;53.358;6.382;2024-03-29T00:22:41;98914.59;;;9.99;85.31
17855;BME280;9053;53.358;6.382;2024-03-29T00:25:08;98917.22;;;9.97;85.26
17855;BME280;9053;53.358;6.382;2024-03-29T00:27:34;98926.84;;;9.97;85.18
17855;BME280;9053;53.358;6.382;2024-03-29T00:30:00;98926.84;;;9.95;85.22
17855;BME280;9053;53.358;6.382;2024-03-29T00:32:26;98932.97;;;9.94;85.25
17855;BME280;9053;53.358;6.382;2024-03-29T00:34:52;98932.06;;;9.92;85.24
17855;BME280;9053;53.358;6.382;2024-03-29T00:37:21;98937.31;;;9.89;85.18
17855;BME280;9053;53.358;6.382;2024-03-29T00:39:47;98934.69;;;9.88;85.25
17855;BME280;9053;53.358;6.382;2024-03-29T00:42:13;98937.28;;;9.86;85.34
17855;BME280;9053;53.358;6.382;2024-03-29T00:44:39;98932.91;;;9.84;85.29
17855;BME280;9053;53.358;6.382;2024-03-29T00:47:05;98926.78;;;9.83;85.26
17855;BME280;9053;53.358;6.382;2024-03-29T00:49:31;98938.16;;;9.84;85.38
17855;BME280;9053;53.358;6.382;2024-03-29T00:51:58;98934.59;;;9.80;85.35
17855;BME280;9053;53.358;6.382;2024-03-29T00:54:27;98929.38;;;9.79;85.39
17855;BME280;9053;53.358;6.382;2024-03-29T00:56:53;98935.47;;;9.76;85.38
17855;BME280;9053;53.358;6.382;2024-03-29T00:59:20;98945.09;;;9.75;85.55
17855;BME280;9053;53.358;6.382;2024-03-29T01:01:46;98940.69;;;9.74;85.57
17855;BME280;9053;53.358;6.382;2024-03-29T01:04:12;98937.22;;;9.74;85.63
17855;BME280;9053;53.358;6.382;2024-03-29T01:06:39;98938.09;;;9.73;85.64
17855;BME280;9053;53.358;6.382;2024-03-29T01:09:05;98934.56;;;9.72;85.73
17855;BME280;9053;53.358;6.382;2024-03-29T01:11:34;98945.06;;;9.71;85.69
17855;BME280;9053;53.358;6.382;2024-03-29T01:14:00;98938.03;;;9.70;85.83
17855;BME280;9053;53.358;6.382;2024-03-29T01:16:26;98938.03;;;9.70;85.74
17855;BME280;9053;53.358;6.382;2024-03-29T01:18:52;98945.06;;;9.72;85.82
17855;BME280;9053;53.358;6.382;2024-03-29T01:21:18;98945.97;;;9.73;85.97
17855;BME280;9053;53.358;6.382;2024-03-29T01:23:44;98945.09;;;9.77;85.80
17855;BME280;9053;53.358;6.382;2024-03-29T01:26:10;98939.00;;;9.78;85.85
17855;BME280;9053;53.358;6.382;2024-03-29T01:28:40;98933.75;;;9.81;85.90
17855;BME280;9053;53.358;6.382;2024-03-29T01:31:06;98934.66;;;9.83;85.89
17855;BME280;9053;53.358;6.382;2024-03-29T01:33:32;98939.03;;;9.87;85.87
17855;BME280;9053;53.358;6.382;2024-03-29T01:35:58;98937.31;;;9.89;85.81
17855;BME280;9053;53.358;6.382;2024-03-29T01:38:24;98938.19;;;9.91;85.73
17855;BME280;9053;53.358;6.382;2024-03-29T01:40:50;98939.09;;;9.93;85.67
17855;BME280;9053;53.358;6.382;2024-03-29T01:43:16;98945.22;;;9.97;85.56
17855;BME280;9053;53.358;6.382;2024-03-29T01:45:47;98946.97;;;9.96;85.54
17855;BME280;9053;53.358;6.382;2024-03-29T01:48:13;98948.75;;;9.99;85.43
17855;BME280;9053;53.358;6.382;2024-03-29T01:50:40;98947.84;;;10.00;85.40
17855;BME280;9053;53.358;6.382;2024-03-29T01:53:08;98940.88;;;10.01;85.42
17855;BME280;9053;53.358;6.382;2024-03-29T01:55:34;98935.59;;;9.97;85.40
17855;BME280;9053;53.358;6.382;2024-03-29T01:58:01;98941.75;;;9.98;85.53
17855;BME280;9053;53.358;6.382;2024-03-29T02:00:29;98939.09;;;10.00;85.46
17855;BME280;9053;53.358;6.382;2024-03-29T02:02:59;98933.00;;;10.01;85.45
17855;BME280;9053;53.358;6.382;2024-03-29T02:05:26;98936.47;;;10.00;85.48
17855;BME280;9053;53.358;6.382;2024-03-29T02:07:52;98936.47;;;10.00;85.36
17855;BME280;9053;53.358;6.382;2024-03-29T02:10:20;98926.00;;;10.01;85.36
17855;BME280;9053;53.358;6.382;2024-03-29T02:12:47;98933.00;;;10.02;85.30
17855;BME280;9053;53.358;6.382;2024-03-29T02:15:15;98920.75;;;10.01;85.20
17855;BME280;9053;53.358;6.382;2024-03-29T02:17:41;98933.84;;;10.00;85.25
17855;BME280;9053;53.358;6.382;2024-03-29T02:20:11;98919.84;;;9.97;85.22
17855;BME280;9053;53.358;6.382;2024-03-29T02:22:39;98922.47;;;9.96;85.07
17855;BME280;9053;53.358;6.382;2024-03-29T02:25:10;98922.44;;;9.94;85.08
17855;BME280;9053;53.358;6.382;2024-03-29T02:27:38;98925.06;;;9.91;85.13
17855;BME280;9053;53.358;6.382;2024-03-29T02:30:05;98921.53;;;9.89;85.07
17855;BME280;9053;53.358;6.382;2024-03-29T02:32:31;98920.66;;;9.84;85.01
17855;BME280;9053;53.358;6.382;2024-03-29T02:34:57;98924.16;;;9.83;84.96
17855;BME280;9053;53.358;6.382;2024-03-29T02:37:23;98923.22;;;9.80;84.98
17855;BME280;9053;53.358;6.382;2024-03-29T02:39:49;98930.22;;;9.76;85.05
17855;BME280;9053;53.358;6.382;2024-03-29T02:42:18;98918.84;;;9.74;85.12
17855;BME280;9053;53.358;6.382;2024-03-29T02:44:46;98919.66;;;9.70;85.13
17855;BME280;9053;53.358;6.382;2024-03-29T02:47:12;98929.28;;;9.66;85.21
17855;BME280;9053;53.358;6.382;2024-03-29T02:49:38;98927.50;;;9.62;85.15
17855;BME280;9053;53.358;6.382;2024-03-29T02:52:04;98931.88;;;9.62;85.23
17855;BME280;9053;53.358;6.382;2024-03-29T02:54:31;98940.59;;;9.58;85.28
17855;BME280;9053;53.358;6.382;2024-03-29T02:56:57;98935.38;;;9.58;85.38
17855;BME280;9053;53.358;6.382;2024-03-29T02:59:25;98928.31;;;9.53;85.45
17855;BME280;9053;53.358;6.382;2024-03-29T03:01:52;98930.06;;;9.51;85.46
17855;BME280;9053;53.358;6.382;2024-03-29T03:04:18;98922.16;;;9.48;85.57
17855;BME280;9053;53.358;6.382;2024-03-29T03:06:44;98927.38;;;9.45;85.63
17855;BME280;9053;53.358;6.382;2024-03-29T03:09:10;98929.13;;;9.45;85.77
17855;BME280;9053;53.358;6.382;2024-03-29T03:11:51;98918.59;;;9.42;85.71
17855;BME280;9053;53.358;6.382;2024-03-29T03:14:18;98923.84;;;9.42;85.63
17855;BME280;9053;53.358;6.382;2024-03-29T03:16:46;98928.22;;;9.41;85.80
17855;BME280;9053;53.358;6.382;2024-03-29T03:19:13;98937.81;;;9.39;85.82
17855;BME280;9053;53.358;6.382;2024-03-29T03:21:39;98930.81;;;9.37;85.96
17855;BME280;9053;53.358;6.382;2024-03-29T03:24:05;98925.56;;;9.37;86.00
17855;BME280;9053;53.358;6.382;2024-03-29T03:26:31;98934.31;;;9.36;86.05
17855;BME280;9053;53.358;6.382;2024-03-29T03:28:58;98936.91;;;9.34;86.01
17855;BME280;9053;53.358;6.382;2024-03-29T03:31:24;98943.03;;;9.33;86.13
17855;BME280;9053;53.358;6.382;2024-03-29T03:33:52;98951.75;;;9.30;86.14
17855;BME280;9053;53.358;6.382;2024-03-29T03:36:18;98959.59;;;9.29;86.22
17855;BME280;9053;53.358;6.382;2024-03-29T03:38:44;98963.97;;;9.28;86.31
17855;BME280;9053;53.358;6.382;2024-03-29T03:41:10;98963.97;;;9.28;86.38
17855;BME280;9053;53.358;6.382;2024-03-29T03:43:37;98965.72;;;9.28;86.49
17855;BME280;9053;53.358;6.382;2024-03-29T03:46:03;98965.72;;;9.28;86.52
17855;BME280;9053;53.358;6.382;2024-03-29T03:48:29;98956.97;;;9.29;86.54
17855;BME280;9053;53.358;6.382;2024-03-29T03:50:58;98943.88;;;9.32;86.70
17855;BME280;9053;53.358;6.382;2024-03-29T03:53:24;98939.53;;;9.34;86.62
17855;BME280;9053;53.358;6.382;2024-03-29T03:55:50;98941.28;;;9.37;86.68
17855;BME280;9053;53.358;6.382;2024-03-29T03:58:16;98945.69;;;9.36;86.64
17855;BME280;9053;53.358;6.382;2024-03-29T04:00:43;98948.28;;;9.36;86.55
17855;BME280;9053;53.358;6.382;2024-03-29T04:03:09;98950.06;;;9.39;86.54
17855;BME280;9053;53.358;6.382;2024-03-29T04:05:36;98958.81;;;9.39;86.48
17855;BME280;9053;53.358;6.382;2024-03-29T04:08:06;98967.56;;;9.40;86.43
17855;BME280;9053;53.358;6.382;2024-03-29T04:10:32;98968.47;;;9.40;86.41
17855;BME280;9053;53.358;6.382;2024-03-29T04:13:01;98971.94;;;9.41;86.49
17855;BME280;9053;53.358;6.382;2024-03-29T04:15:27;98972.84;;;9.43;86.39
17855;BME280;9053;53.358;6.382;2024-03-29T04:17:53;98970.22;;;9.43;86.33
17855;BME280;9053;53.358;6.382;2024-03-29T04:20:19;98971.06;;;9.42;86.28
17855;BME280;9053;53.358;6.382;2024-03-29T04:22:45;98965.84;;;9.43;86.33
17855;BME280;9053;53.358;6.382;2024-03-29T04:25:14;98966.75;;;9.45;86.31
17855;BME280;9053;53.358;6.382;2024-03-29T04:27:40;98968.50;;;9.46;86.30
17855;BME280;9053;53.358;6.382;2024-03-29T04:30:07;98967.63;;;9.46;86.21
17855;BME280;9053;53.358;6.382;2024-03-29T04:32:33;98964.13;;;9.47;86.17
17855;BME280;9053;53.358;6.382;2024-03-29T04:35:00;98965.91;;;9.48;86.08
17855;BME280;9053;53.358;6.382;2024-03-29T04:37:26;98957.13;;;9.47;86.09
17855;BME280;9053;53.358;6.382;2024-03-29T04:39:52;98958.00;;;9.46;86.02
17855;BME280;9053;53.358;6.382;2024-03-29T04:42:20;98963.25;;;9.46;86.09
17855;BME280;9053;53.358;6.382;2024-03-29T04:44:47;98966.75;;;9.45;85.93
17855;BME280;9053;53.358;6.382;2024-03-29T04:47:13;98964.13;;;9.45;86.02
17855;BME280;9053;53.358;6.382;2024-03-29T04:49:39;98956.25;;;9.45;85.92
17855;BME280;9053;53.358;6.382;2024-03-29T04:52:06;98972.88;;;9.46;85.88
17855;BME280;9053;53.358;6.382;2024-03-29T04:54:32;98963.22;;;9.43;85.90
17855;BME280;9053;53.358;6.382;2024-03-29T04:56:59;98969.34;;;9.44;85.91
17855;BME280;9053;53.358;6.382;2024-03-29T04:59:28;98964.97;;;9.44;85.92
17855;BME280;9053;53.358;6.382;2024-03-29T05:01:54;98969.38;;;9.45;85.87
17855;BME280;9053;53.358;6.382;2024-03-29T05:04:21;98967.63;;;9.46;85.75
17855;BME280;9053;53.358;6.382;2024-03-29T05:06:51;98964.97;;;9.44;85.82
17855;BME280;9053;53.358;6.382;2024-03-29T05:09:18;98959.72;;;9.43;85.79
17855;BME280;9053;53.358;6.382;2024-03-29T05:11:45;98962.34;;;9.44;85.77
17855;BME280;9053;53.358;6.382;2024-03-29T05:14:11;98962.38;;;9.46;85.75
17855;BME280;9053;53.358;6.382;2024-03-29T05:16:40;98960.63;;;9.46;85.66
17855;BME280;9053;53.358;6.382;2024-03-29T05:19:06;98963.25;;;9.49;85.73
17855;BME280;9053;53.358;6.382;2024-03-29T05:21:32;98979.06;;;9.52;85.72
17855;BME280;9053;53.358;6.382;2024-03-29T05:23:58;98975.56;;;9.55;85.72
17855;BME280;9053;53.358;6.382;2024-03-29T05:26:24;98973.81;;;9.56;85.70
17855;BME280;9053;53.358;6.382;2024-03-29T05:28:50;98972.94;;;9.57;85.70
17855;BME280;9053;53.358;6.382;2024-03-29T05:31:16;98979.09;;;9.59;85.77
17855;BME280;9053;53.358;6.382;2024-03-29T05:33:45;98985.22;;;9.59;85.71
17855;BME280;9053;53.358;6.382;2024-03-29T05:36:12;98987.88;;;9.64;85.70
17855;BME280;9053;53.358;6.382;2024-03-29T05:38:38;98984.38;;;9.65;85.67
17855;BME280;9053;53.358;6.382;2024-03-29T05:41:04;98992.28;;;9.68;85.68
17855;BME280;9053;53.358;6.382;2024-03-29T05:43:31;98994.91;;;9.66;85.75
17855;BME280;9053;53.358;6.382;2024-03-29T05:45:57;98990.50;;;9.67;85.62
17855;BME280;9053;53.358;6.382;2024-03-29T05:48:24;99003.66;;;9.70;85.72
17855;BME280;9053;53.358;6.382;2024-03-29T05:50:52;98993.22;;;9.73;85.73
17855;BME280;9053;53.358;6.382;2024-03-29T05:53:18;98994.94;;;9.74;85.74
17855;BME280;9053;53.358;6.382;2024-03-29T05:55:45;98998.44;;;9.74;85.71
17855;BME280;9053;53.358;6.382;2024-03-29T05:58:11;99002.84;;;9.75;85.72
17855;BME280;9053;53.358;6.382;2024-03-29T06:00:37;98994.97;;;9.80;85.76
17855;BME280;9053;53.358;6.382;2024-03-29T06:03:05;98993.25;;;9.82;85.71
17855;BME280;9053;53.358;6.382;2024-03-29T06:05:31;98998.56;;;9.85;85.75
17855;BME280;9053;53.358;6.382;2024-03-29T06:08:01;99001.16;;;9.87;85.72
17855;BME280;9053;53.358;6.382;2024-03-29T06:10:27;98999.44;;;9.89;85.82
17855;BME280;9053;53.358;6.382;2024-03-29T06:12:53;99009.97;;;9.93;85.79
17855;BME280;9053;53.358;6.382;2024-03-29T06:15:21;99011.72;;;9.94;85.73
17855;BME280;9053;53.358;6.382;2024-03-29T06:18:03;99019.63;;;9.96;85.77
17855;BME280;9053;53.358;6.382;2024-03-29T06:20:29;99013.50;;;9.99;85.80
17855;BME280;9053;53.358;6.382;2024-03-29T06:22:55;99017.00;;;9.99;85.87
17855;BME280;9053;53.358;6.382;2024-03-29T06:25:24;99019.66;;;10.01;85.84
17855;BME280;9053;53.358;6.382;2024-03-29T06:27:50;99024.91;;;10.01;85.76
17855;BME280;9053;53.358;6.382;2024-03-29T06:30:17;99027.53;;;10.02;85.86
17855;BME280;9053;53.358;6.382;2024-03-29T06:32:43;99027.53;;;10.05;85.95
17855;BME280;9053;53.358;6.382;2024-03-29T06:35:10;99038.06;;;10.07;85.86
17855;BME280;9053;53.358;6.382;2024-03-29T06:37:37;99029.34;;;10.09;85.89
17855;BME280;9053;53.358;6.382;2024-03-29T06:40:03;99037.22;;;10.09;85.91
17855;BME280;9053;53.358;6.382;2024-03-29T06:42:32;99039.84;;;10.12;86.00
17855;BME280;9053;53.358;6.382;2024-03-29T06:44:58;99039.00;;;10.15;86.06
17855;BME280;9053;53.358;6.382;2024-03-29T06:47:24;99042.53;;;10.18;86.19
17855;BME280;9053;53.358;6.382;2024-03-29T06:49:50;99036.44;;;10.24;86.19
17855;BME280;9053;53.358;6.382;2024-03-29T06:52:16;99053.16;;;10.32;86.35
17855;BME280;9053;53.358;6.382;2024-03-29T06:54:43;99049.72;;;10.43;86.43
17855;BME280;9053;53.358;6.382;2024-03-29T06:57:09;99046.25;;;10.50;86.32
17855;BME280;9053;53.358;6.382;2024-03-29T06:59:37;99052.41;;;10.55;86.30
17855;BME280;9053;53.358;6.382;2024-03-29T07:02:03;99058.56;;;10.60;86.37
17855;BME280;9053;53.358;6.382;2024-03-29T07:04:29;99062.09;;;10.62;86.20
17855;BME280;9053;53.358;6.382;2024-03-29T07:06:55;99066.47;;;10.65;86.03
17855;BME280;9053;53.358;6.382;2024-03-29T07:09:22;99062.97;;;10.64;86.08
17855;BME280;9053;53.358;6.382;2024-03-29T07:11:49;99064.75;;;10.64;86.03
17855;BME280;9053;53.358;6.382;2024-03-29T07:14:17;99060.34;;;10.61;85.94
17855;BME280;9053;53.358;6.382;2024-03-29T07:16:47;99066.47;;;10.63;85.94
17855;BME280;9053;53.358;6.382;2024-03-29T07:19:13;99069.09;;;10.65;85.94
17855;BME280;9053;53.358;6.382;2024-03-29T07:21:39;99072.63;;;10.68;85.94
17855;BME280;9053;53.358;6.382;2024-03-29T07:24:06;99079.66;;;10.69;85.96
17855;BME280;9053;53.358;6.382;2024-03-29T07:26:33;99080.53;;;10.71;86.05
17855;BME280;9053;53.358;6.382;2024-03-29T07:28:59;99079.66;;;10.69;86.05
17855;BME280;9053;53.358;6.382;2024-03-29T07:31:25;99084.03;;;10.72;86.09
17855;BME280;9053;53.358;6.382;2024-03-29T07:33:54;99069.16;;;10.75;86.11
17855;BME280;9053;53.358;6.382;2024-03-29T07:36:20;99078.81;;;10.75;85.96
17855;BME280;9053;53.358;6.382;2024-03-29T07:38:46;99078.81;;;10.76;86.09
17855;BME280;9053;53.358;6.382;2024-03-29T07:41:12;99074.41;;;10.78;86.15
17855;BME280;9053;53.358;6.382;2024-03-29T07:43:39;99088.47;;;10.79;86.26
17855;BME280;9053;53.358;6.382;2024-03-29T07:46:05;99079.72;;;10.85;86.25
17855;BME280;9053;53.358;6.382;2024-03-29T07:48:32;99073.59;;;10.84;86.33
17855;BME280;9053;53.358;6.382;2024-03-29T07:51:01;99090.25;;;10.85;86.26
17855;BME280;9053;53.358;6.382;2024-03-29T07:53:27;99083.22;;;10.88;86.33
17855;BME280;9053;53.358;6.382;2024-03-29T07:55:53;99085.88;;;10.87;86.22
17855;BME280;9053;53.358;6.382;2024-03-29T07:58:19;99095.50;;;10.88;86.41
17855;BME280;9053;53.358;6.382;2024-03-29T08:00:46;99097.28;;;10.92;86.40
17855;BME280;9053;53.358;6.382;2024-03-29T08:03:13;99112.19;;;10.96;86.45
17855;BME280;9053;53.358;6.382;2024-03-29T08:05:39;99117.50;;;11.02;86.68
17855;BME280;9053;53.358;6.382;2024-03-29T08:08:08;99126.28;;;11.09;86.73
17855;BME280;9053;53.358;6.382;2024-03-29T08:10:34;99127.22;;;11.17;86.88
17855;BME280;9053;53.358;6.382;2024-03-29T08:13:00;99134.25;;;11.29;87.06
17855;BME280;9053;53.358;6.382;2024-03-29T08:15:26;99133.41;;;11.39;87.27
17855;BME280;9053;53.358;6.382;2024-03-29T08:17:53;99136.09;;;11.56;87.49
17855;BME280;9053;53.358;6.382;2024-03-29T08:20:19;99144.91;;;11.72;87.49
17855;BME280;9053;53.358;6.382;2024-03-29T08:22:45;99155.50;;;11.91;87.48
17855;BME280;9053;53.358;6.382;2024-03-29T08:25:14;99150.28;;;12.10;87.24
17855;BME280;9053;53.358;6.382;2024-03-29T08:27:41;99135.31;;;12.29;87.26
17855;BME280;9053;53.358;6.382;2024-03-29T08:30:08;99135.31;;;12.50;87.07
17855;BME280;9053;53.358;6.382;2024-03-29T08:32:34;99139.69;;;12.73;86.94
17855;BME280;9053;53.358;6.382;2024-03-29T08:35:00;99138.75;;;12.91;86.36
17855;BME280;9053;53.358;6.382;2024-03-29T08:37:26;99136.06;;;13.00;85.71
17855;BME280;9053;53.358;6.382;2024-03-29T08:39:52;99143.06;;;13.12;85.34
17855;BME280;9053;53.358;6.382;2024-03-29T08:42:21;99136.00;;;13.21;84.90
17855;BME280;9053;53.358;6.382;2024-03-29T08:44:47;99128.06;;;13.32;84.46
17855;BME280;9053;53.358;6.382;2024-03-29T08:47:13;99142.06;;;13.47;84.46
17855;BME280;9053;53.358;6.382;2024-03-29T08:49:39;99164.03;;;13.61;84.34
17855;BME280;9053;53.358;6.382;2024-03-29T08:52:05;99149.84;;;13.74;83.94
17855;BME280;9053;53.358;6.382;2024-03-29T08:54:31;99161.25;;;13.81;83.56
17855;BME280;9053;53.358;6.382;2024-03-29T08:57:00;99148.88;;;13.88;83.19
17855;BME280;9053;53.358;6.382;2024-03-29T08:59:30;99162.94;;;13.93;82.98
17855;BME280;9053;53.358;6.382;2024-03-29T09:02:03;99161.16;;;13.93;82.35
17855;BME280;9053;53.358;6.382;2024-03-29T09:04:30;99163.84;;;13.89;81.96
17855;BME280;9053;53.358;6.382;2024-03-29T09:06:56;99162.13;;;13.81;81.79
17855;BME280;9053;53.358;6.382;2024-03-29T09:09:22;99141.03;;;13.75;81.75
17855;BME280;9053;53.358;6.382;2024-03-29T09:11:48;99132.22;;;13.76;81.93
17855;BME280;9053;53.358;6.382;2024-03-29T09:14:16;99132.19;;;13.78;82.19
17855;BME280;9053;53.358;6.382;2024-03-29T09:16:47;99133.97;;;13.77;82.29
17855;BME280;9053;53.358;6.382;2024-03-29T09:19:13;99141.03;;;13.75;82.43
17855;BME280;9053;53.358;6.382;2024-03-29T09:21:39;99153.38;;;13.76;82.49
17855;BME280;9053;53.358;6.382;2024-03-29T09:24:06;99156.88;;;13.75;82.59
17855;BME280;9053;53.358;6.382;2024-03-29T09:26:32;99151.63;;;13.72;82.74
17855;BME280;9053;53.358;6.382;2024-03-29T09:28:58;99163.03;;;13.77;82.93
17855;BME280;9053;53.358;6.382;2024-03-29T09:31:24;99161.22;;;13.87;83.34
17855;BME280;9053;53.358;6.382;2024-03-29T09:33:53;99147.91;;;14.02;83.65
17855;BME280;9053;53.358;6.382;2024-03-29T09:36:20;99146.91;;;14.19;83.94
17855;BME280;9053;53.358;6.382;2024-03-29T09:38:47;99144.97;;;14.38;83.87
17855;BME280;9053;53.358;6.382;2024-03-29T09:41:14;99148.38;;;14.52;83.64
17855;BME280;9053;53.358;6.382;2024-03-29T09:43:42;99146.53;;;14.65;83.34
17855;BME280;9053;53.358;6.382;2024-03-29T09:46:08;99158.75;;;14.74;82.74
17855;BME280;9053;53.358;6.382;2024-03-29T09:48:37;99157.00;;;14.76;82.29
17855;BME280;9053;53.358;6.382;2024-03-29T09:51:07;99148.13;;;14.80;82.02
17855;BME280;9053;53.358;6.382;2024-03-29T09:53:35;99154.25;;;14.83;81.64
17855;BME280;9053;53.358;6.382;2024-03-29T09:56:03;99157.78;;;14.87;81.57
17855;BME280;9053;53.358;6.382;2024-03-29T09:58:30;99164.81;;;14.88;81.36
17855;BME280;9053;53.358;6.382;2024-03-29T10:00:56;99162.16;;;14.86;81.49
17855;BME280;9053;53.358;6.382;2024-03-29T10:03:23;99176.31;;;14.84;81.50
17855;BME280;9053;53.358;6.382;2024-03-29T10:05:50;99172.00;;;14.77;81.49
17855;BME280;9053;53.358;6.382;2024-03-29T10:08:18;99190.50;;;14.75;81.69
17855;BME280;9053;53.358;6.382;2024-03-29T10:10:45;99177.28;;;14.75;81.64
17855;BME280;9053;53.358;6.382;2024-03-29T10:13:11;99174.69;;;14.70;81.57
17855;BME280;9053;53.358;6.382;2024-03-29T10:15:37;99165.03;;;14.63;81.48
17855;BME280;9053;53.358;6.382;2024-03-29T10:18:04;99168.63;;;14.59;81.46
17855;BME280;9053;53.358;6.382;2024-03-29T10:20:30;99178.31;;;14.62;81.76
17855;BME280;9053;53.358;6.382;2024-03-29T10:22:56;99188.88;;;14.62;81.81
17855;BME280;9053;53.358;6.382;2024-03-29T10:25:25;99196.84;;;14.57;81.72
17855;BME280;9053;53.358;6.382;2024-03-29T10:27:52;99187.16;;;14.58;81.79
17855;BME280;9053;53.358;6.382;2024-03-29T10:30:25;99189.81;;;14.53;81.56
17855;BME280;9053;53.358;6.382;2024-03-29T10:32:51;99202.19;;;14.49;81.49
17855;BME280;9053;53.358;6.382;2024-03-29T10:35:18;99195.13;;;14.50;81.60
17855;BME280;9053;53.358;6.382;2024-03-29T10:37:45;99185.41;;;14.54;81.64
17855;BME280;9053;53.358;6.382;2024-03-29T10:40:11;99182.75;;;14.55;81.65
17855;BME280;9053;53.358;6.382;2024-03-29T10:42:41;99180.13;;;14.52;81.39
17855;BME280;9053;53.358;6.382;2024-03-29T10:45:08;99181.88;;;14.53;81.37
17855;BME280;9053;53.358;6.382;2024-03-29T10:47:34;99180.13;;;14.55;81.46
17855;BME280;9053;53.358;6.382;2024-03-29T10:50:00;99197.72;;;14.56;81.25
17855;BME280;9053;53.358;6.382;2024-03-29T10:52:27;99188.09;;;14.49;81.16
17855;BME280;9053;53.358;6.382;2024-03-29T10:54:53;99189.81;;;14.50;81.33
17855;BME280;9053;53.358;6.382;2024-03-29T10:57:23;99181.03;;;14.54;81.50
17855;BME280;9053;53.358;6.382;2024-03-29T10:59:58;99174.75;;;14.61;81.59
17855;BME280;9053;53.358;6.382;2024-03-29T11:02:34;99175.56;;;14.71;81.72
17855;BME280;9053;53.358;6.382;2024-03-29T11:05:02;99181.66;;;14.78;81.81
17855;BME280;9053;53.358;6.382;2024-03-29T11:07:34;99194.81;;;14.84;81.63
17855;BME280;9053;53.358;6.382;2024-03-29T11:10:03;99195.69;;;14.86;81.73
17855;BME280;9053;53.358;6.382;2024-03-29T11:12:38;99193.91;;;14.89;81.67
17855;BME280;9053;53.358;6.382;2024-03-29T11:15:15;99203.59;;;14.90;81.34
17855;BME280;9053;53.358;6.382;2024-03-29T11:17:45;99210.66;;;14.88;81.08
17855;BME280;9053;53.358;6.382;2024-03-29T11:20:12;99207.22;;;14.82;80.86
17855;BME280;9053;53.358;6.382;2024-03-29T11:22:38;99198.41;;;14.80;81.09
17855;BME280;9053;53.358;6.382;2024-03-29T11:25:04;99201.91;;;14.85;81.33
17855;BME280;9053;53.358;6.382;2024-03-29T11:27:31;99205.34;;;14.93;81.18
17855;BME280;9053;53.358;6.382;2024-03-29T11:29:57;99197.31;;;14.99;81.10
17855;BME280;9053;53.358;6.382;2024-03-29T11:32:38;99205.25;;;15.02;80.92
17855;BME280;9053;53.358;6.382;2024-03-29T11:35:05;99207.84;;;15.05;80.83
17855;BME280;9053;53.358;6.382;2024-03-29T11:37:31;99214.03;;;15.07;80.67
17855;BME280;9053;53.358;6.382;2024-03-29T11:39:58;99213.97;;;15.12;80.60
17855;BME280;9053;53.358;6.382;2024-03-29T11:42:36;99218.38;;;15.13;80.53
17855;BME280;9053;53.358;6.382;2024-03-29T11:45:02;99221.88;;;15.13;80.24
17855;BME280;9053;53.358;6.382;2024-03-29T11:47:29;99234.25;;;15.14;80.08
17855;BME280;9053;53.358;6.382;2024-03-29T11:49:58;99226.31;;;15.11;79.77
17855;BME280;9053;53.358;6.382;2024-03-29T11:52:26;99227.22;;;15.10;79.61
17855;BME280;9053;53.358;6.382;2024-03-29T11:54:53;99237.81;;;15.10;79.58
17855;BME280;9053;53.358;6.382;2024-03-29T11:57:20;99230.81;;;15.05;79.23
17855;BME280;9053;53.358;6.382;2024-03-29T11:59:46;99237.03;;;14.99;78.92
17855;BME280;9053;53.358;6.382;2024-03-29T12:02:13;99228.22;;;15.00;79.14
17855;BME280;9053;53.358;6.382;2024-03-29T12:04:39;99215.84;;;15.01;79.21
17855;BME280;9053;53.358;6.382;2024-03-29T12:07:08;99215.81;;;15.04;79.33
17855;BME280;9053;53.358;6.382;2024-03-29T12:09:35;99221.09;;;15.07;79.62
17855;BME280;9053;53.358;6.382;2024-03-29T12:12:05;99223.75;;;15.07;79.63
17855;BME280;9053;53.358;6.382;2024-03-29T12:14:31;99226.38;;;15.05;79.60
17855;BME280;9053;53.358;6.382;2024-03-29T12:16:59;99226.41;;;15.04;79.45
17855;BME280;9053;53.358;6.382;2024-03-29T12:19:26;99229.91;;;15.04;79.71
17855;BME280;9053;53.358;6.382;2024-03-29T12:21:53;99225.47;;;15.06;79.66
17855;BME280;9053;53.358;6.382;2024-03-29T12:24:22;99231.69;;;15.04;79.72
17855;BME280;9053;53.358;6.382;2024-03-29T12:26:49;99238.75;;;15.02;79.34
17855;BME280;9053;53.358;6.382;2024-03-29T12:29:15;99245.00;;;14.98;79.05
17855;BME280;9053;53.358;6.382;2024-03-29T12:31:41;99243.22;;;14.97;79.22
17855;BME280;9053;53.358;6.382;2024-03-29T12:34:07;99253.81;;;14.98;79.48
17855;BME280;9053;53.358;6.382;2024-03-29T12:36:35;99259.97;;;15.00;79.58
17855;BME280;9053;53.358;6.382;2024-03-29T12:39:01;99261.69;;;15.04;79.63
17855;BME280;9053;53.358;6.382;2024-03-29T12:41:31;99265.19;;;15.06;79.37
17855;BME280;9053;53.358;6.382;2024-03-29T12:43:57;99274.03;;;15.05;79.38
17855;BME280;9053;53.358;6.382;2024-03-29T12:46:24;99266.09;;;15.05;79.02
17855;BME280;9053;53.358;6.382;2024-03-29T12:48:57;99269.66;;;15.03;78.76
17855;BME280;9053;53.358;6.382;2024-03-29T12:51:24;99262.59;;;15.02;78.54
17855;BME280;9053;53.358;6.382;2024-03-29T12:53:50;99270.56;;;15.00;78.29
17855;BME280;9053;53.358;6.382;2024-03-29T12:56:16;99261.72;;;15.01;78.34
17855;BME280;9053;53.358;6.382;2024-03-29T12:58:45;99266.13;;;15.02;78.54
17855;BME280;9053;53.358;6.382;2024-03-29T13:01:11;99277.56;;;15.04;78.55
17855;BME280;9053;53.358;6.382;2024-03-29T13:03:37;99267.88;;;15.05;78.64
17855;BME280;9053;53.358;6.382;2024-03-29T13:06:04;99260.81;;;15.04;78.67
17855;BME280;9053;53.358;6.382;2024-03-29T13:08:30;99271.41;;;15.07;78.64
17855;BME280;9053;53.358;6.382;2024-03-29T13:10:57;99271.31;;;15.11;78.72
17855;BME280;9053;53.358;6.382;2024-03-29T13:13:25;99271.31;;;15.14;78.51